Terminal Aerodrome Forecast
Issued by NWS

Home | Current Version | Previous Version | Text Only | Print | Product List | Glossary On
Versions: 1 2 3 4 5 6 7 8 9 10 11 12 13 14 15 16 17 18 19 20 21 22
095
FTUS46 KMTR 260112 AAA
TAFMRY
TAF AMD
KMRY 260112Z 2601/2624 30007KT P6SM BKN010
      TEMPO 2601/2605 5SM BR HZ OVC009
     FM260500 24004KT 1SM BR OVC002
      TEMPO 2614/2617 1/2SM FG VV002
     FM261800 29008KT 6SM HZ FU SCT012=

USA.gov is the U.S. government's official web portal to all federal, state and local government web resources and services.